Terminal Aerodrome Forecast
Issued by NWS

Home | Current Version | Previous Version | Text Only | Print | Product List | Glossary On
Versions: 1 2 3 4 5 6 7 8 9 10 11 12 13 14 15 16 17 18 19 20 21
000
FTUS45 KVEF 290500
TAFHND
TAF
KHND 290537Z 2906/3006 17005KT P6SM OVC150
     FM291800 01007KT P6SM SCT120 OVC150
     FM300300 17005KT P6SM BKN100 OVC150=

USA.gov is the U.S. government's official web portal to all federal, state and local government web resources and services.